61.1°F
Current conditions from King Hill
Updated every 5 minutes
 
  Thursday August 21, 2014

Observations for Westford

Westford

44° 37' 39"N, 73° 02' 29"W, Elevation 850 ft.
Eastern Time

Hourly observations for the last 72 hours

Date Time Temperature (F) Humi-
dity

(%)
Wind
(mph)
Pressure Rain (in)
Air Dew 6 Hour 1 Hr 3 Hr 6 Hr Day
Alt
(in)
Sea
Level

(mb)
Max Min
21 19:00 63.8 57.5 80 Calm 29.97 1015.1 0.05
21 18:00 64.5 55.7 73 SSE 0 G 4 29.98 1015.1 0.05
21 17:00 66.2 58.1 75 ESE 0 G 5 29.98 1015.2 0.01 0.05
21 16:00 68.4 59.4 73 SE 1 G 9 29.97 1015.1 0.05
21 15:00 66.3 60.3 81 SE 2 G 12 29.97 1014.9 0.01 0.05
21 14:00 64.7 60.4 68.5 62.3 86 E 0 G 8 29.98 1015.2 0.01 0.04
21 13:00 67.5 62.8 85 S 0 G 6 29.98 1015.4 0.04
21 12:00 67.8 63.1 85 SE 0 G 1 29.97 1014.9 0.04
21 11:00 64.7 62.3 92 Calm 29.96 1014.6 0.01 0.04
21 10:00 63.0 60.9 93 Calm 29.97 1015.0 0.04
21 09:00 62.4 60.4 93 Calm 29.97 1015.0 0.01 0.04
21 08:00 63.0 61.2 64.4 59.5 94 SSE 1 G 5 29.97 1015.0 0.01 0.03 0.03 0.03
21 07:00 62.2 60.8 95 SSW 0 G 1 29.97 1014.9 0.01 0.02
21 06:00 61.9 60.5 95 Calm 29.95 1014.4 0.01 0.01
21 05:00 63.8 60.2 88 SSW 0 G 4 29.95 1014.2 0.00
21 04:00 63.6 60.3 89 Calm 29.94 1014.1 0.00
21 03:00 60.4 59.3 96 SE 0 G 1 29.95 1014.2 0.00
21 02:00 59.6 58.2 66.4 59.5 95 Calm 29.94 1013.9 0.00
21 01:00 60.8 58.2 91 Calm 29.94 1013.9 0.00
21 00:00 63.9 59.6 86 Calm 29.94 1013.9 0.00
20 23:00 64.9 60.6 86 Calm 29.94 1014.1 0.00
20 22:00 65.1 60.5 85 Calm 29.94 1013.9 0.00
20 21:00 64.8 60.5 86 Calm 29.93 1013.7 0.00
20 20:00 66.4 61.4 81.5 66.4 84 SSE 0 G 4 29.92 1013.2 0.00
20 19:00 70.5 64.4 81 Calm 29.91 1012.8 0.00
20 18:00 76.6 66.9 72 Calm 29.92 1013.1 0.00
20 17:00 80.7 65.5 60 S 0 G 1 29.91 1012.8 0.00
20 16:00 77.5 67.4 71 Calm 32.12 1087.7 0.00
20 15:00 79.2 63.7 59 E 0 G 1 29.91 1012.8 0.00
20 14:00 78.8 62.8 79.1 56.6 58 ESE 0 G 1 29.92 1013.4 0.00
20 13:00 76.8 63.7 64 SSW 0 G 4 29.96 1014.5 0.00
20 12:00 76.1 60.8 59 WSW 0 G 5 29.93 1013.7 0.00
20 11:00 74.8 63.5 68 SE 0 G 1 29.94 1014.0 0.00
20 10:00 69.0 61.5 77 NNE 0 G 4 29.93 1013.6 0.00
20 09:00 62.2 58.9 89 Calm 29.93 1013.5 0.00
20 08:00 56.6 56.0 56.6 48.3 98 Calm 29.93 1013.6 0.00
20 07:00 49.0 48.5 98 Calm 29.92 1013.3 0.00
20 06:00 48.9 48.4 98 Calm 29.91 1012.9 0.00
20 05:00 48.9 48.4 98 Calm 29.90 1012.5 0.00
20 04:00 49.5 49.0 98 Calm 29.89 1012.2 0.00
20 03:00 50.1 49.6 98 Calm 29.89 1012.4 0.00
20 02:00 50.4 49.6 58.6 50.4 97 Calm 29.89 1012.3 0.00
20 01:00 51.7 50.9 97 Calm 29.90 1012.5 0.00
20 00:00 52.1 51.3 97 Calm 29.89 1012.3 0.00
19 23:00 52.9 51.8 96 Calm 29.88 1011.9 0.00
19 22:00 54.0 52.9 96 Calm 29.89 1012.2 0.00
19 21:00 54.8 53.1 94 Calm 29.87 1011.6 0.00
19 20:00 58.6 55.4 74.9 58.6 89 Calm 29.86 1011.2 0.00
19 19:00 66.4 58.6 76 Calm 29.86 1011.1 0.00
19 18:00 71.3 57.2 61 Calm 29.86 1011.3 0.00
19 17:00 73.1 57.9 59 Calm 29.85 1011.0 0.00
19 16:00 69.8 59.6 70 Calm 29.86 1011.2 0.00
19 15:00 71.0 58.7 65 Calm 29.86 1011.3 0.00
19 14:00 69.8 57.5 71.8 53.4 65 Calm 29.87 1011.6 0.00
19 13:00 68.8 57.4 67 Calm 29.87 1011.6 0.00
19 12:00 68.9 58.7 70 WNW 0 G 1 29.88 1012.0 0.00
19 11:00 66.8 57.9 73 Calm 29.89 1012.3 0.00
19 10:00 64.1 56.7 77 Calm 29.89 1012.3 0.00
19 09:00 60.4 56.2 86 Calm 29.89 1012.1 0.00
19 08:00 53.4 52.8 53.4 45.5 98 Calm 29.88 1011.8 0.00
19 07:00 46.6 46.1 98 Calm 29.87 1011.6 0.00
19 06:00 45.6 45.1 98 Calm 29.87 1011.4 0.00
19 05:00 46.0 45.5 98 Calm 29.85 1011.0 0.00
19 04:00 46.2 45.7 98 Calm 29.83 1010.3 0.00
19 03:00 46.8 46.3 98 Calm 29.83 1010.3 0.00
19 02:00 47.5 46.7 55.1 47.4 97 Calm 29.83 1010.4 0.00
19 01:00 48.7 47.9 97 Calm 29.85 1010.9 0.00
19 00:00 49.1 48.3 97 Calm 29.84 1010.7 0.06
18 23:00 50.4 49.3 96 Calm 29.84 1010.6 0.06
18 22:00 50.3 49.2 96 Calm 29.84 1010.5 0.06
18 21:00 51.2 49.8 95 Calm 29.84 1010.5 0.06
18 20:00 55.1 51.9 68.7 55.1 89 Calm 29.83 1010.0 0.06

Data generated by WxSolution Version 1.8.7.2, Build 2014.02.15.


 
 
Current Radar Loop:

Copyright © WestfordWeather.net 2007-2014. All rights reserved.